This is the latest recevied weather packets stored in our database for station/object EB2EMZ-W. If no packets are shown the sender has not sent any weather packets the latest 10 day(s).
| Time | Temp. | Humidity | Pressure | Rain* | Wind** | Luminosity | Snow |
|---|---|---|---|---|---|---|---|
| 1777766809 | 15° C | 86% | 998 hPa | 0 mm | - | - | - |
| 1777764989 | 15.56° C | 85% | 998 hPa | 0 mm | - | - | - |
| 1777761848 | 15.56° C | 86% | 998 hPa | 0 mm | - | - | - |
| 1777760038 | 15.56° C | 86% | 998 hPa | 0 mm | - | - | - |
| 1777758229 | 15.56° C | 86% | 998 hPa | 0 mm | - | - | - |
| 1777756418 | 15.56° C | 86% | 998 hPa | 0 mm | - | - | - |
| 1777754608 | 15.56° C | 86% | 998 hPa | 0 mm | - | - | - |
| 1777752797 | 16.11° C | 84% | 997 hPa | 0 mm | - | - | - |
| 1777750988 | 16.67° C | 84% | 997 hPa | 0 mm | - | - | - |
| 1777749177 | 17.78° C | 82% | 997 hPa | 0 mm | - | - | - |
| 1777747368 | 17.78° C | 83% | 997.3 hPa | 0 mm | - | - | - |
| 1777745557 | 17.78° C | 82% | 997 hPa | 4.06 mm | - | - | - |
| 1777743747 | 18.33° C | 80% | 998 hPa | 4.06 mm | - | - | - |
| 1777741938 | 18.33° C | 79% | 997.8 hPa | 0 mm | - | - | - |
| 1777740126 | 19.44° C | 73% | 997.4 hPa | 0 mm | - | - | - |
| 1777738318 | 19.44° C | 73% | 997 hPa | 0 mm | - | - | - |
| 1777736507 | 19.44° C | 69% | 998 hPa | 5.08 mm | - | - | - |
| 1777734697 | 18.89° C | 77% | 998 hPa | 6.1 mm | - | - | - |
| 1777732887 | 18.89° C | 65% | 999 hPa | 1.02 mm | - | - | - |
| 1777731079 | 18.89° C | 66% | 999 hPa | 0 mm | - | - | - |
| 1777729267 | 18.89° C | 68% | 1000 hPa | 3.05 mm | - | - | - |
| 1777727457 | 17.78° C | 59% | 1000 hPa | 2.03 mm | - | - | - |
| 1777725648 | 21.67° C | 52% | 999 hPa | 0 mm | - | - | - |
| 1777723839 | 23.33° C | 46% | 999 hPa | 0 mm | - | - | - |
| 1777722029 | 21.67° C | 67% | 999 hPa | 0 mm | - | - | - |
* Rain latest hour (hover to see other rain measurements)
** Current wind speed in m/s (hover to see current wind gust speed)